Time;durP1;ratioP1;P1;durP2;ratioP2;P2;SDS_P1;SDS_P2;PMS_P1;PMS_P2;Temp;Humidity;BMP_temperature;BMP_pressure;BME280_temperature;BME280_humidity;BME280_pressure;Samples;Min_cycle;Max_cycle;Signal;HPM_P1;HPM_P2
2023/01/30 00:00:25;;;;;;;0.30;0.30;;;;;;;17.79;40.04;101524.06;5125709;27;20048;-46
2023/01/30 00:02:50;;;;;;;0.30;0.30;;;;;;;17.79;40.09;101546.94;5111744;28;20044;-45
2023/01/30 00:05:16;;;;;;;0.30;0.30;;;;;;;17.79;40.15;101535.09;5111664;28;20049;-46
2023/01/30 00:07:42;;;;;;;0.30;0.30;;;;;;;17.79;40.12;101549.72;5124929;28;20050;-45
2023/01/30 00:10:08;;;;;;;0.38;0.38;;;;;;;17.79;40.13;101551.63;5132351;28;20051;-46
2023/01/30 00:12:34;;;;;;;0.40;0.40;;;;;;;17.79;40.01;101546.13;5130589;28;20525;-46
2023/01/30 00:14:59;;;;;;;0.30;0.30;;;;;;;17.79;40.02;101535.09;5128260;27;20047;-46
2023/01/30 00:17:25;;;;;;;0.30;0.30;;;;;;;17.79;39.96;101532.34;5132190;28;20050;-46
2023/01/30 00:19:51;;;;;;;0.30;0.30;;;;;;;17.79;40.06;101524.91;5113670;28;20043;-46
2023/01/30 00:22:16;;;;;;;0.30;0.30;;;;;;;17.80;40.07;101525.75;5115032;28;20048;-46
2023/01/30 00:24:42;;;;;;;0.20;0.20;;;;;;;17.79;39.97;101524.06;5111243;28;20052;-47
2023/01/30 00:27:08;;;;;;;0.30;0.30;;;;;;;17.79;39.79;101527.66;5119073;28;20046;-47
2023/01/30 00:29:34;;;;;;;0.30;0.30;;;;;;;17.80;39.96;101520.22;5131770;28;20053;-46
2023/01/30 00:31:59;;;;;;;0.30;0.30;;;;;;;17.79;40.15;101521.31;5131517;28;20504;-48
2023/01/30 00:34:25;;;;;;;0.30;0.30;;;;;;;17.79;40.14;101508.38;5131279;27;20464;-45
2023/01/30 00:36:51;;;;;;;0.40;0.40;;;;;;;17.79;40.13;101504.78;5130632;28;20046;-48
2023/01/30 00:39:32;;;;;;;0.30;0.30;;;;;;;17.78;40.34;101503.09;5132022;28;20047;-47
2023/01/30 00:47:29;;;;;;;0.40;0.40;;;;;;;17.78;39.98;101476.38;5116086;28;20075;-48
2023/01/30 00:49:55;;;;;;;0.32;0.32;;;;;;;17.79;40.04;101460.72;5131624;28;20411;-47
2023/01/30 00:52:21;;;;;;;0.30;0.30;;;;;;;17.79;40.19;101464.31;5131225;28;20051;-47
2023/01/30 00:54:46;;;;;;;0.40;0.40;;;;;;;17.79;40.02;101469.81;5131601;28;20505;-46
2023/01/30 00:57:12;;;;;;;0.32;0.32;;;;;;;17.78;40.12;101470.03;5131162;28;20243;-47
2023/01/30 00:59:38;;;;;;;0.40;0.40;;;;;;;17.79;40.09;101469.81;5131470;28;20130;-46
2023/01/30 01:02:03;;;;;;;0.40;0.40;;;;;;;17.78;39.98;101461.78;5131124;28;20402;-45
2023/01/30 01:04:29;;;;;;;0.30;0.30;;;;;;;17.79;40.04;101452.44;5131604;28;20054;-46
2023/01/30 01:06:55;;;;;;;0.40;0.40;;;;;;;17.77;39.98;101449.94;5130787;27;20494;-46
2023/01/30 01:09:20;;;;;;;0.40;0.40;;;;;;;17.79;40.11;101450.53;5131354;28;20070;-46
2023/01/30 01:11:46;;;;;;;0.40;0.40;;;;;;;17.77;39.99;101452.69;5131478;28;20390;-46
2023/01/30 01:14:12;;;;;;;0.80;0.80;;;;;;;17.78;40.07;101462.59;5129411;28;20091;-47
2023/01/30 01:16:37;;;;;;;0.40;0.40;;;;;;;17.78;40.08;101453.50;5131118;28;20441;-45
2023/01/30 01:19:03;;;;;;;0.40;0.40;;;;;;;17.77;39.98;101443.59;5121925;28;20078;-45
2023/01/30 01:21:29;;;;;;;0.30;0.30;;;;;;;17.78;40.04;101434.22;5110531;28;20051;-45
2023/01/30 01:23:57;;;;;;;0.40;0.40;;;;;;;17.78;39.95;101435.06;5110619;28;20044;-47
2023/01/30 01:26:23;;;;;;;0.40;0.40;;;;;;;17.78;40.21;101425.97;5093573;28;20568;-46
2023/01/30 01:28:53;;;;;;;0.32;0.32;;;;;;;17.78;40.07;101426.78;5112607;28;20479;-45
2023/01/30 01:31:18;;;;;;;0.40;0.40;;;;;;;17.77;40.10;101436.16;5130667;27;20091;-45
2023/01/30 01:33:44;;;;;;;0.40;0.40;;;;;;;17.78;40.05;101429.53;5131204;28;20051;-47
2023/01/30 01:36:10;;;;;;;0.30;0.30;;;;;;;17.78;40.12;101424.03;5129753;28;20043;-46
2023/01/30 01:38:37;;;;;;;0.40;0.40;;;;;;;17.78;40.07;101426.78;5131095;28;20043;-48
2023/01/30 01:41:08;;;;;;;0.30;0.30;;;;;;;17.78;40.11;101420.47;5130696;28;20482;-46
2023/01/30 01:43:37;;;;;;;0.35;0.35;;;;;;;17.78;39.94;101431.47;5130774;28;20054;-46
2023/01/30 01:46:09;;;;;;;0.40;0.40;;;;;;;17.78;40.07;101421.28;5111513;28;20502;-45
2023/01/30 01:48:40;;;;;;;0.30;0.30;;;;;;;17.78;40.07;101426.78;5130609;28;20043;-46
2023/01/30 01:51:30;;;;;;;0.30;0.30;;;;;;;17.78;40.30;101418.53;5130543;28;20441;-45
2023/01/30 01:54:08;;;;;;;0.30;0.30;;;;;;;17.78;40.18;101413.03;5115153;28;20268;-46
2023/01/30 01:56:34;;;;;;;;;;;;;;;17.78;40.06;101421.28;5112138;28;20079;-46
2023/01/30 01:59:06;;;;;;;0.40;0.40;;;;;;;17.77;40.33;101425.13;5109203;28;19923;-47
2023/01/30 02:01:32;;;;;;;0.30;0.30;;;;;;;17.77;39.85;101416.88;5129894;28;20078;-47
2023/01/30 02:04:02;;;;;;;0.30;0.30;;;;;;;17.77;40.05;101405.84;5130283;28;20058;-47
2023/01/30 02:06:28;;;;;;;0.30;0.30;;;;;;;17.78;40.21;101403.94;5128158;28;20055;-46
2023/01/30 02:08:58;;;;;;;0.30;0.30;;;;;;;17.78;39.98;101399.25;5074840;28;20051;-45
2023/01/30 02:11:31;;;;;;;0.40;0.40;;;;;;;17.78;40.13;101387.41;5109760;28;20055;-48
2023/01/30 02:13:56;;;;;;;0.32;0.32;;;;;;;17.77;40.15;101392.06;5093469;28;20051;-45
2023/01/30 02:16:22;;;;;;;0.30;0.30;;;;;;;17.77;40.02;101386.56;5112005;28;20058;-47
2023/01/30 02:18:48;;;;;;;0.30;0.30;;;;;;;17.78;40.02;101365.34;5111777;28;20047;-47
2023/01/30 02:21:53;;;;;;;0.40;0.40;;;;;;;17.78;40.08;101376.38;5130427;28;20545;-45
2023/01/30 02:24:35;;;;;;;0.40;0.40;;;;;;;17.79;40.13;101367.03;5110657;28;20051;-47
2023/01/30 02:27:14;;;;;;;0.30;0.30;;;;;;;17.78;40.00;101366.19;5098126;28;20083;-46
2023/01/30 02:30:05;;;;;;;0.40;0.40;;;;;;;17.79;39.95;101358.78;5120952;27;20101;-45
2023/01/30 02:33:11;;;;;;;0.32;0.32;;;;;;;17.78;40.07;101354.34;5094366;28;20048;-47
2023/01/30 02:35:45;;;;;;;0.30;0.30;;;;;;;17.78;40.04;101346.06;5094120;28;20072;-46
2023/01/30 02:38:23;;;;;;;0.40;0.40;;;;;;;17.77;39.98;101348.00;5127202;28;20081;-46
2023/01/30 02:41:01;;;;;;;0.40;0.40;;;;;;;17.78;39.95;101335.06;5111942;28;20410;-46
2023/01/30 02:43:33;;;;;;;;;;;;;;;17.78;40.03;101341.38;5110032;28;20120;-46
2023/01/30 02:46:04;;;;;;;0.40;0.40;;;;;;;17.78;39.89;101324.03;5091250;28;19931;-46
2023/01/30 02:48:52;;;;;;;0.38;0.38;;;;;;;17.77;40.03;101325.97;5110272;28;20594;-50
2023/01/30 02:51:22;;;;;;;0.30;0.30;;;;;;;17.78;40.03;101326.78;5114737;28;20402;-45
2023/01/30 02:53:48;;;;;;;0.30;0.30;;;;;;;17.78;39.93;101319.34;5094407;28;20047;-45
2023/01/30 02:56:14;;;;;;;0.30;0.30;;;;;;;17.77;39.94;101309.44;5110653;28;20047;-46
2023/01/30 02:58:45;;;;;;;0.30;0.30;;;;;;;17.77;39.94;101309.44;5111285;28;20070;-47
2023/01/30 03:01:50;;;;;;;0.40;0.40;;;;;;;17.78;39.96;101310.25;5129417;28;20070;-47
2023/01/30 03:04:54;;;;;;;0.50;0.50;;;;;;;17.77;39.93;101314.94;5114338;28;20046;-48
2023/01/30 03:08:00;;;;;;;0.30;0.30;;;;;;;17.78;39.97;101307.50;5107132;28;20043;-45
2023/01/30 03:10:36;;;;;;;0.50;0.50;;;;;;;17.76;40.14;101294.00;5082422;28;20071;-46
2023/01/30 03:13:10;;;;;;;0.40;0.40;;;;;;;17.78;40.03;101304.75;5108213;28;20127;-45
2023/01/30 03:15:44;;;;;;;0.30;0.30;;;;;;;17.76;40.25;101298.69;5129773;28;20100;-45
2023/01/30 03:18:10;;;;;;;0.40;0.40;;;;;;;17.77;39.99;101298.41;5103520;28;20120;-46
2023/01/30 03:20:37;;;;;;;0.40;0.40;;;;;;;17.77;39.92;101292.91;5129374;28;20372;-46
2023/01/30 03:23:03;;;;;;;0.40;0.40;;;;;;;17.78;39.95;101288.22;5110886;28;20399;-47
2023/01/30 03:25:29;;;;;;;0.40;0.40;;;;;;;17.77;39.77;101298.41;5129058;28;20573;-46
2023/01/30 03:27:55;;;;;;;0.40;0.40;;;;;;;17.78;39.87;101288.22;5110773;28;20081;-45
2023/01/30 03:30:24;;;;;;;0.30;0.30;;;;;;;17.77;39.87;101270.88;5117465;27;20043;-47
2023/01/30 03:32:49;;;;;;;;;;;;;;;17.77;39.93;101284.63;5109115;28;20047;-45
2023/01/30 03:35:16;;;;;;;0.40;0.40;;;;;;;17.78;39.95;101289.06;5108755;28;19949;-46
2023/01/30 03:37:44;;;;;;;0.40;0.40;;;;;;;17.78;40.04;101294.56;5122055;28;20053;-46
2023/01/30 03:40:11;;;;;;;0.40;0.40;;;;;;;17.77;39.98;101279.13;5110860;28;20078;-47
2023/01/30 03:42:37;;;;;;;0.40;0.40;;;;;;;17.78;39.93;101274.44;5110780;28;20135;-46
2023/01/30 03:45:02;;;;;;;0.30;0.30;;;;;;;17.77;40.07;101276.38;5129310;28;20088;-46
2023/01/30 03:47:28;;;;;;;0.40;0.40;;;;;;;17.78;39.87;101255.16;5110684;28;20540;-46
2023/01/30 03:49:54;;;;;;;0.30;0.30;;;;;;;17.77;40.28;101246.06;5129220;28;20047;-47
2023/01/30 03:52:19;;;;;;;0.40;0.40;;;;;;;17.77;39.84;101248.00;5129047;28;20076;-47
2023/01/30 03:54:45;;;;;;;0.40;0.40;;;;;;;17.77;39.94;101248.00;5128814;28;20391;-46
2023/01/30 03:57:11;;;;;;;0.30;0.30;;;;;;;17.79;40.12;101243.06;5124349;27;20262;-46
2023/01/30 03:59:36;;;;;;;0.30;0.30;;;;;;;17.77;40.00;101240.56;5113305;28;20052;-45
2023/01/30 04:02:02;;;;;;;0.40;0.40;;;;;;;17.77;40.03;101235.06;5109272;28;20487;-46
2023/01/30 04:04:28;;;;;;;0.40;0.40;;;;;;;17.77;39.87;101240.56;5128966;28;20073;-45
2023/01/30 04:06:53;;;;;;;0.40;0.40;;;;;;;17.77;39.93;101239.72;5122986;28;20052;-46
2023/01/30 04:09:19;;;;;;;0.30;0.30;;;;;;;17.78;40.04;101233.13;5111110;28;20480;-46
2023/01/30 04:11:45;;;;;;;0.30;0.30;;;;;;;17.77;39.97;101228.72;5112052;28;20054;-49
2023/01/30 04:14:10;;;;;;;0.40;0.40;;;;;;;17.77;39.94;101231.47;5112820;28;20040;-46
2023/01/30 04:16:36;;;;;;;0.40;0.40;;;;;;;17.77;40.02;101228.72;5132139;28;20043;-46
2023/01/30 04:19:02;;;;;;;0.30;0.30;;;;;;;17.78;39.94;101224.84;5132024;28;20054;-45
2023/01/30 04:21:27;;;;;;;0.40;0.40;;;;;;;17.78;39.76;101222.94;5132110;28;20043;-46
2023/01/30 04:23:53;;;;;;;0.30;0.30;;;;;;;17.78;40.22;101222.09;5131846;28;20433;-46
2023/01/30 04:26:19;;;;;;;0.40;0.40;;;;;;;17.78;40.01;101222.94;5131743;28;20047;-45
2023/01/30 04:28:44;;;;;;;0.38;0.38;;;;;;;17.77;40.17;101212.19;5131962;28;20047;-45
2023/01/30 04:31:10;;;;;;;0.30;0.30;;;;;;;17.77;40.00;101220.44;5131601;28;20047;-46
2023/01/30 04:33:38;;;;;;;0.32;0.32;;;;;;;17.77;39.97;101202.00;5132241;28;20495;-46
2023/01/30 04:36:05;;;;;;;0.32;0.32;;;;;;;17.76;40.13;101205.84;5131986;28;20061;-46
2023/01/30 04:38:32;;;;;;;0.30;0.30;;;;;;;17.77;39.98;101220.44;5095154;28;20100;-46
2023/01/30 04:40:58;;;;;;;0.35;0.35;;;;;;;17.78;39.93;101213.84;5113464;28;20062;-46
2023/01/30 04:43:25;;;;;;;0.40;0.40;;;;;;;17.78;39.99;101213.84;5113392;28;20051;-46
2023/01/30 04:45:51;;;;;;;0.30;0.30;;;;;;;17.78;40.05;101224.84;5131655;28;20043;-46
2023/01/30 04:48:18;;;;;;;0.40;0.40;;;;;;;17.77;40.04;101218.53;5113250;28;20043;-45
2023/01/30 04:50:47;;;;;;;0.30;0.30;;;;;;;17.77;40.05;101207.50;5111490;27;20147;-45
2023/01/30 04:53:13;;;;;;;0.30;0.30;;;;;;;17.78;40.06;101205.56;5111187;28;20071;-46
2023/01/30 04:55:39;;;;;;;0.40;0.40;;;;;;;17.77;39.87;101198.41;5092286;28;20047;-47
2023/01/30 04:58:04;;;;;;;0.35;0.35;;;;;;;17.77;40.07;101210.25;5130256;28;20069;-48
2023/01/30 05:00:30;;;;;;;0.32;0.32;;;;;;;17.78;40.07;101213.84;5131509;28;20043;-45
2023/01/30 05:02:56;;;;;;;0.30;0.30;;;;;;;17.78;39.98;101205.56;5131461;28;20394;-48
2023/01/30 05:05:22;;;;;;;0.30;0.30;;;;;;;17.76;39.95;101208.59;5131648;28;20047;-46
2023/01/30 05:07:48;;;;;;;0.30;0.30;;;;;;;17.77;40.08;101209.44;5131528;28;20051;-47
2023/01/30 05:10:15;;;;;;;0.30;0.30;;;;;;;17.76;39.91;101208.59;5131756;28;20039;-47
2023/01/30 05:12:40;;;;;;;0.40;0.40;;;;;;;17.76;40.05;101214.13;5107362;28;20043;-45
2023/01/30 05:15:06;;;;;;;0.40;0.40;;;;;;;17.77;40.07;101214.94;5131297;28;20049;-48
2023/01/30 05:17:33;;;;;;;0.40;0.40;;;;;;;17.77;40.02;101207.50;5106504;28;20329;-46
2023/01/30 05:19:59;;;;;;;0.40;0.40;;;;;;;17.76;39.99;101200.34;5129227;27;20050;-45
2023/01/30 05:22:24;;;;;;;0.38;0.38;;;;;;;17.77;40.12;101203.94;5130933;28;20114;-46
2023/01/30 05:24:50;;;;;;;0.40;0.40;;;;;;;17.77;39.98;101192.91;5131035;28;20479;-45
2023/01/30 05:27:16;;;;;;;0.30;0.30;;;;;;;17.77;40.11;101199.25;5112500;28;20049;-47
2023/01/30 05:29:42;;;;;;;0.40;0.40;;;;;;;17.77;39.97;101201.16;5124759;27;20442;-46
2023/01/30 05:32:11;;;;;;;0.40;0.40;;;;;;;17.78;40.00;101211.09;5091915;28;20052;-45
2023/01/30 05:34:37;;;;;;;0.30;0.30;;;;;;;17.78;40.12;101208.34;5099165;28;20552;-46
2023/01/30 05:37:03;;;;;;;0.40;0.40;;;;;;;17.77;40.03;101206.69;5130727;28;20043;-46
2023/01/30 05:39:28;;;;;;;0.40;0.40;;;;;;;17.76;40.15;101200.34;5130476;28;20055;-45
2023/01/30 05:41:54;;;;;;;0.40;0.40;;;;;;;17.77;40.15;101203.94;5111636;28;20055;-47
2023/01/30 05:44:19;;;;;;;0.30;0.30;;;;;;;17.77;40.34;101204.75;5110118;28;20419;-46
2023/01/30 05:46:45;;;;;;;0.30;0.30;;;;;;;17.76;40.21;101194.84;5114581;28;20100;-49
2023/01/30 05:49:11;;;;;;;0.40;0.40;;;;;;;17.76;40.11;101196.75;5125220;28;20061;-46
2023/01/30 05:51:37;;;;;;;0.47;0.47;;;;;;;17.77;40.05;101188.22;5130690;28;20047;-45
2023/01/30 05:54:02;;;;;;;0.30;0.30;;;;;;;17.78;40.08;101189.88;5130364;27;20055;-46
2023/01/30 05:56:32;;;;;;;0.30;0.30;;;;;;;17.78;39.75;101192.63;5123706;28;20047;-45
2023/01/30 05:58:59;;;;;;;0.30;0.30;;;;;;;17.77;40.30;101185.47;5113408;28;20062;-47
2023/01/30 06:01:25;;;;;;;0.30;0.30;;;;;;;17.79;40.12;101185.22;5103581;28;20395;-47
2023/01/30 06:03:52;;;;;;;0.30;0.30;;;;;;;17.78;40.15;101184.38;5101181;28;20043;-46
2023/01/30 06:06:18;;;;;;;0.30;0.30;;;;;;;17.77;40.14;101193.72;5106371;28;20043;-46
2023/01/30 06:08:44;;;;;;;0.30;0.30;;;;;;;17.79;40.11;101177.78;5101046;28;20039;-47
2023/01/30 06:11:12;;;;;;;0.40;0.40;;;;;;;17.77;40.07;101179.97;5111515;28;20483;-46
2023/01/30 06:13:38;;;;;;;0.30;0.30;;;;;;;17.78;39.84;101191.81;5121579;28;20498;-46
2023/01/30 06:16:05;;;;;;;0.30;0.30;;;;;;;17.77;40.11;101188.22;5109363;28;20051;-45
2023/01/30 06:18:31;;;;;;;0.40;0.40;;;;;;;17.77;40.20;101196.47;5094837;28;20047;-47
2023/01/30 06:20:57;;;;;;;0.30;0.30;;;;;;;17.77;40.04;101196.47;5123088;28;20051;-47
2023/01/30 06:23:22;;;;;;;0.40;0.40;;;;;;;17.77;40.41;101206.69;5129934;28;20096;-48
2023/01/30 06:25:49;;;;;;;0.40;0.40;;;;;;;17.77;40.32;101220.44;5119996;28;20039;-45
2023/01/30 06:28:15;;;;;;;0.30;0.30;;;;;;;17.77;40.32;101207.50;5084019;28;20051;-47
2023/01/30 06:30:41;;;;;;;0.30;0.30;;;;;;;17.77;40.26;101214.94;5099775;28;20039;-45
2023/01/30 06:33:07;;;;;;;0.30;0.30;;;;;;;17.77;40.14;101212.19;5108135;28;20051;-46
2023/01/30 06:35:33;;;;;;;0.40;0.40;;;;;;;17.78;40.45;101222.09;5089914;28;20705;-46
2023/01/30 06:37:59;;;;;;;0.30;0.30;;;;;;;17.76;40.09;101211.38;5120422;27;20525;-46
2023/01/30 06:40:25;;;;;;;0.30;0.30;;;;;;;17.77;40.20;101217.69;5092022;28;20044;-45
2023/01/30 06:42:50;;;;;;;0.30;0.30;;;;;;;17.76;40.22;101219.63;5113500;28;20047;-47
2023/01/30 06:45:17;;;;;;;0.40;0.40;;;;;;;17.79;40.10;101213.59;5113306;28;20044;-47
2023/01/30 06:47:48;;;;;;;0.40;0.40;;;;;;;17.79;40.54;101210.84;5110484;28;20047;-46
2023/01/30 06:50:16;;;;;;;0.40;0.40;;;;;;;17.79;40.32;101208.09;5107517;28;20047;-46
2023/01/30 06:52:44;;;;;;;0.30;0.30;;;;;;;17.79;40.36;101226.53;5089587;28;20119;-49
2023/01/30 06:55:11;;;;;;;0.40;0.40;;;;;;;17.79;40.42;101237.56;5110895;28;20052;-46
2023/01/30 06:57:37;;;;;;;0.40;0.40;;;;;;;17.79;40.30;101230.13;5122812;28;20457;-46
2023/01/30 07:00:04;;;;;;;0.35;0.35;;;;;;;17.81;40.29;101243.63;5096645;28;20534;-45
2023/01/30 07:02:33;;;;;;;0.30;0.30;;;;;;;17.81;40.46;101243.63;5075391;28;20122;-46
2023/01/30 07:04:59;;;;;;;0.40;0.40;;;;;;;17.82;40.34;101230.69;5103505;28;20103;-45
2023/01/30 07:07:25;;;;;;;0.35;0.35;;;;;;;17.82;40.44;101230.69;5086251;27;20079;-46
2023/01/30 07:09:51;;;;;;;0.30;0.30;;;;;;;17.83;40.44;101235.91;5105284;28;20409;-45
2023/01/30 07:12:33;;;;;;;0.35;0.35;;;;;;;17.84;40.33;101234.00;5106576;28;20046;-46
2023/01/30 07:14:59;;;;;;;0.30;0.30;;;;;;;17.84;40.26;101232.09;5105868;28;20275;-45
2023/01/30 07:17:24;;;;;;;0.30;0.30;;;;;;;17.85;40.33;101238.41;5098647;28;20044;-47
2023/01/30 07:19:50;;;;;;;0.32;0.32;;;;;;;17.84;40.58;101223.00;5106743;28;20050;-49
2023/01/30 07:22:16;;;;;;;0.40;0.40;;;;;;;17.85;40.44;101219.13;5098327;27;20346;-45
2023/01/30 07:24:41;;;;;;;0.30;0.30;;;;;;;17.86;40.34;101224.38;5110374;28;20472;-45
2023/01/30 07:27:08;;;;;;;0.40;0.40;;;;;;;17.86;40.34;101234.56;5082483;28;20087;-45
2023/01/30 07:29:35;;;;;;;0.40;0.40;;;;;;;17.59;41.15;101246.44;5091024;28;20062;-59
2023/01/30 07:32:01;;;;;;;0.30;0.30;;;;;;;17.78;40.95;101252.41;5086361;27;20551;-46
2023/01/30 07:34:26;;;;;;;0.40;0.40;;;;;;;17.84;41.21;101237.59;5089622;28;20115;-46
2023/01/30 07:36:52;;;;;;;0.40;0.40;;;;;;;17.87;41.23;101238.97;5111473;27;20298;-45
2023/01/30 07:39:18;;;;;;;0.30;0.30;;;;;;;17.82;41.03;101233.44;5106605;27;20045;-45
2023/01/30 07:41:43;;;;;;;0.40;0.40;;;;;;;17.88;40.99;101235.97;5103351;27;20201;-46
2023/01/30 07:44:09;;;;;;;0.40;0.40;;;;;;;17.90;41.00;101236.53;5105133;28;20052;-45
2023/01/30 07:46:35;;;;;;;0.40;0.40;;;;;;;17.91;41.17;101248.38;5118849;28;20523;-48
2023/01/30 07:49:01;;;;;;;0.30;0.30;;;;;;;17.90;40.82;101242.03;5107043;28;20040;-45
2023/01/30 07:51:27;;;;;;;0.40;0.40;;;;;;;17.91;40.91;101246.44;5085148;28;20388;-46
2023/01/30 07:53:52;;;;;;;0.40;0.40;;;;;;;17.92;41.01;101247.28;5082754;28;20047;-48
2023/01/30 07:56:20;;;;;;;0.30;0.30;;;;;;;17.91;40.93;101249.19;5103559;28;20051;-48
2023/01/30 07:58:47;;;;;;;0.30;0.30;;;;;;;17.94;40.88;101258.88;5101193;28;20047;-51
2023/01/30 08:01:12;;;;;;;0.40;0.40;;;;;;;17.93;40.49;101258.06;5097717;27;20684;-47
2023/01/30 08:03:38;;;;;;;0.40;0.40;;;;;;;17.93;40.96;101249.78;5099411;27;20039;-48
2023/01/30 08:06:05;;;;;;;0.40;0.40;;;;;;;17.94;40.65;101248.69;5074430;28;20047;-48
2023/01/30 08:08:30;;;;;;;0.30;0.30;;;;;;;17.94;40.91;101261.63;5078595;28;20079;-48
2023/01/30 08:10:56;;;;;;;0.40;0.40;;;;;;;17.95;40.71;101266.88;5096070;28;20463;-47
2023/01/30 08:13:22;;;;;;;0.30;0.30;;;;;;;17.96;40.59;101264.94;5101651;27;20051;-48
2023/01/30 08:15:47;;;;;;;0.38;0.38;;;;;;;17.97;40.79;101261.94;5110145;28;20051;-48
2023/01/30 08:18:13;;;;;;;0.30;0.30;;;;;;;17.97;40.70;101272.97;5107571;27;20047;-48
2023/01/30 08:20:39;;;;;;;0.30;0.30;;;;;;;17.99;40.78;101258.91;5109087;27;20109;-49
2023/01/30 08:23:04;;;;;;;0.40;0.40;;;;;;;17.99;40.79;101258.91;5115145;28;20498;-47
2023/01/30 08:25:30;;;;;;;0.30;0.30;;;;;;;17.98;40.80;101257.25;5105992;28;20047;-47
2023/01/30 08:27:58;;;;;;;0.30;0.30;;;;;;;17.99;40.60;101258.91;5107991;27;20096;-49
2023/01/30 08:30:23;;;;;;;0.23;0.23;;;;;;;17.98;40.68;101265.53;5092642;27;20078;-48
2023/01/30 08:32:49;;;;;;;0.40;0.40;;;;;;;18.00;40.78;101285.38;5112387;28;20296;-48
2023/01/30 08:35:15;;;;;;;0.40;0.40;;;;;;;17.99;40.70;101290.06;5110147;27;20044;-49
2023/01/30 08:37:41;;;;;;;0.30;0.30;;;;;;;18.00;40.77;101297.25;5110510;27;20403;-50
2023/01/30 08:40:07;;;;;;;0.30;0.30;;;;;;;18.01;40.56;101292.56;5090536;28;20096;-48
2023/01/30 08:42:33;;;;;;;0.32;0.32;;;;;;;18.00;40.85;101296.38;5106334;28;20035;-47
2023/01/30 08:44:59;;;;;;;0.30;0.30;;;;;;;18.01;40.72;101298.06;5095780;28;21016;-49
2023/01/30 08:47:24;;;;;;;0.30;0.30;;;;;;;18.03;40.76;101293.13;5111504;28;20047;-48
2023/01/30 08:49:51;;;;;;;0.30;0.30;;;;;;;18.00;40.67;101291.72;5120464;27;20486;-48
2023/01/30 08:52:18;;;;;;;0.40;0.40;;;;;;;18.02;40.81;101297.78;5117382;27;20043;-49
2023/01/30 08:54:43;;;;;;;0.30;0.30;;;;;;;18.00;40.62;101301.91;5110253;28;20182;-47
2023/01/30 08:57:09;;;;;;;0.40;0.40;;;;;;;18.01;40.93;101307.16;5108344;27;20058;-48
2023/01/30 08:59:35;;;;;;;0.30;0.30;;;;;;;18.06;41.14;101328.41;5092240;28;20043;-54
2023/01/30 09:02:00;;;;;;;0.30;0.30;;;;;;;18.15;41.27;101320.50;5103068;28;20054;-55
2023/01/30 09:04:29;;;;;;;0.30;0.30;;;;;;;18.17;42.04;101326.56;5100730;27;20128;-53
2023/01/30 09:06:54;;;;;;;0.40;0.40;;;;;;;18.14;41.53;101338.13;5104830;27;20482;-47
2023/01/30 09:09:20;;;;;;;0.30;0.30;;;;;;;18.11;41.58;101322.94;5092274;28;20049;-49
2023/01/30 09:11:47;;;;;;;0.30;0.30;;;;;;;18.11;41.87;101338.66;5106355;28;20051;-47
2023/01/30 09:14:15;;;;;;;0.40;0.40;;;;;;;18.09;41.64;101340.81;5108700;27;20188;-48
2023/01/30 09:16:40;;;;;;;0.30;0.30;;;;;;;18.09;41.64;101344.44;5098154;28;20123;-49
2023/01/30 09:19:06;;;;;;;0.30;0.30;;;;;;;18.08;41.95;101330.91;5106959;28;20049;-49
2023/01/30 09:21:32;;;;;;;0.40;0.40;;;;;;;18.08;41.75;101322.63;5108621;28;20047;-48
2023/01/30 09:23:58;;;;;;;0.30;0.30;;;;;;;18.07;41.86;101308.03;5110181;28;20579;-55
2023/01/30 09:26:23;;;;;;;0.30;0.30;;;;;;;18.08;41.71;101306.09;5110736;27;20071;-53
2023/01/30 09:28:49;;;;;;;0.30;0.30;;;;;;;18.08;41.96;101312.44;5103918;28;20086;-50
2023/01/30 09:31:15;;;;;;;0.30;0.30;;;;;;;18.11;41.74;101311.91;5091600;28;20052;-50
2023/01/30 09:33:40;;;;;;;0.30;0.30;;;;;;;18.13;42.43;101319.91;5106227;28;20047;-48
2023/01/30 09:36:07;;;;;;;0.32;0.32;;;;;;;18.14;42.50;101311.41;5092608;28;20283;-54
2023/01/30 09:38:32;;;;;;;0.30;0.30;;;;;;;18.13;42.15;101314.41;5102308;28;20043;-51
2023/01/30 09:43:52;;;;;;;0.30;0.30;;;;;;;18.01;41.97;101336.66;5166228;27;20132;-46
2023/01/30 09:46:41;;;;;;;0.30;0.30;;;;;;;18.06;41.78;101328.41;5139252;27;20070;-52
2023/01/30 09:49:43;;;;;;;0.30;0.30;;;;;;;17.93;41.40;101326.13;5116301;27;21511;-57
2023/01/30 09:52:39;;;;;;;0.30;0.30;;;;;;;17.99;41.86;101339.66;5123871;27;20047;-47
2023/01/30 09:55:23;;;;;;;0.40;0.40;;;;;;;18.04;41.70;101345.19;5118058;27;20725;-45
2023/01/30 09:57:50;;;;;;;0.30;0.30;;;;;;;17.92;41.48;101343.72;5113620;27;20191;-46
2023/01/30 10:00:36;;;;;;;0.32;0.32;;;;;;;18.03;41.71;101343.53;5123814;27;20146;-45
2023/01/30 10:03:10;;;;;;;0.30;0.30;;;;;;;18.08;41.87;101361.22;5104327;27;20047;-53
2023/01/30 10:05:48;;;;;;;0.30;0.30;;;;;;;18.07;41.66;101354.88;5134972;27;20054;-50
2023/01/30 10:08:49;;;;;;;0.30;0.30;;;;;;;18.09;41.67;101343.59;5130805;27;20053;-47
2023/01/30 10:11:46;;;;;;;0.40;0.40;;;;;;;18.10;41.81;101350.78;5129507;27;20041;-45
2023/01/30 10:14:36;;;;;;;0.30;0.30;;;;;;;18.10;41.59;101361.81;5129727;27;20054;-45
2023/01/30 10:17:41;;;;;;;0.30;0.30;;;;;;;18.10;41.44;101364.56;5124880;27;20050;-45
2023/01/30 10:20:34;;;;;;;0.30;0.30;;;;;;;18.11;41.38;101360.72;5124020;27;20107;-45
2023/01/30 10:23:24;;;;;;;0.30;0.30;;;;;;;18.10;41.10;101368.16;5125638;27;20039;-46
2023/01/30 10:25:54;;;;;;;0.30;0.30;;;;;;;18.10;40.98;101368.16;5133901;27;20100;-45
2023/01/30 10:28:30;;;;;;;0.30;0.30;;;;;;;18.10;40.85;101368.16;5129517;27;20461;-46
2023/01/30 10:31:02;;;;;;;0.30;0.30;;;;;;;17.98;40.78;101373.81;5124840;27;20099;-45
2023/01/30 10:33:34;;;;;;;0.30;0.30;;;;;;;18.07;40.65;101373.34;5114417;27;20062;-45
2023/01/30 10:36:11;;;;;;;0.30;0.30;;;;;;;18.04;40.09;101358.16;5112247;27;20383;-45
2023/01/30 10:38:43;;;;;;;0.40;0.40;;;;;;;18.00;39.61;101352.34;5089132;27;20459;-46
2023/01/30 10:41:19;;;;;;;0.30;0.30;;;;;;;18.05;39.94;101362.59;5109355;27;20050;-44
2023/01/30 10:43:52;;;;;;;0.30;0.30;;;;;;;18.05;39.69;101360.66;5106187;27;20051;-47
2023/01/30 10:46:33;;;;;;;0.30;0.30;;;;;;;18.08;41.08;101364.81;5119311;27;20031;-47
2023/01/30 10:49:18;;;;;;;0.30;0.30;;;;;;;18.10;40.91;101373.66;5123475;27;20135;-45
2023/01/30 10:52:04;;;;;;;0.30;0.30;;;;;;;17.96;40.18;101380.69;5127593;27;20479;-45
2023/01/30 10:57:16;;;;;;;0.30;0.30;;;;;;;18.09;41.21;101384.94;5151459;27;20125;-45
2023/01/30 10:59:53;;;;;;;0.30;0.30;;;;;;;18.10;41.22;101381.94;5130346;27;20511;-46
2023/01/30 11:05:14;;;;;;;0.30;0.30;;;;;;;18.13;41.21;101381.38;5166549;27;20873;-46
2023/01/30 11:07:41;;;;;;;0.30;0.30;;;;;;;18.14;41.13;101380.31;5137137;27;20050;-46
2023/01/30 11:10:15;;;;;;;0.30;0.30;;;;;;;18.13;41.16;101373.09;5146926;27;20509;-45
2023/01/30 11:12:41;;;;;;;0.30;0.30;;;;;;;18.13;41.18;101375.03;5141520;27;20080;-45
2023/01/30 11:15:07;;;;;;;0.30;0.30;;;;;;;18.14;41.15;101376.72;5150129;27;20053;-46
2023/01/30 11:17:40;;;;;;;0.30;0.30;;;;;;;18.13;41.16;101369.53;5122445;27;20081;-45
2023/01/30 11:20:13;;;;;;;0.30;0.30;;;;;;;18.14;41.15;101383.06;5153355;27;20496;-50
2023/01/30 11:22:45;;;;;;;0.30;0.30;;;;;;;18.14;41.22;101380.31;5147488;27;20074;-46
2023/01/30 11:25:17;;;;;;;0.30;0.30;;;;;;;18.13;41.09;101383.31;5148262;27;20047;-47
2023/01/30 11:27:51;;;;;;;0.30;0.30;;;;;;;18.14;41.02;101380.31;5101253;27;20047;-46
2023/01/30 11:30:18;;;;;;;0.30;0.30;;;;;;;18.14;41.41;101379.47;5135446;27;20039;-45
2023/01/30 11:32:47;;;;;;;0.20;0.20;;;;;;;18.17;40.87;101378.94;5119157;27;20058;-55
2023/01/30 11:37:47;;;;;;;0.30;0.30;;;;;;;18.19;41.01;101383.09;5168404;27;20558;-50
2023/01/30 11:40:24;;;;;;;0.30;0.30;;;;;;;18.17;41.11;101393.53;5147612;27;20416;-52
2023/01/30 11:42:51;;;;;;;0.30;0.30;;;;;;;18.18;40.93;101397.16;5152072;27;20069;-43
2023/01/30 11:45:18;;;;;;;0.30;0.30;;;;;;;18.18;40.75;101399.91;5129282;27;20051;-46
2023/01/30 11:47:51;;;;;;;0.30;0.30;;;;;;;18.17;39.87;101392.72;5131980;27;20050;-42
2023/01/30 11:50:32;;;;;;;0.30;0.30;;;;;;;18.17;39.78;101401.81;5154086;27;20070;-43
2023/01/30 11:53:14;;;;;;;0.30;0.30;;;;;;;18.16;40.57;101391.88;5153045;27;20039;-44